sensor_id;sensor_type;location;lat;lon;timestamp;P1;durP1;ratioP1;P2;durP2;ratioP2
22417;SDS011;11376;50.932;4.442;2022-11-15T00:00:32;16.87;;;8.23;;
22417;SDS011;11376;50.932;4.442;2022-11-15T00:02:59;18.73;;;9.03;;
22417;SDS011;11376;50.932;4.442;2022-11-15T00:05:25;18.03;;;8.80;;
22417;SDS011;11376;50.932;4.442;2022-11-15T00:07:51;22.73;;;9.33;;
22417;SDS011;11376;50.932;4.442;2022-11-15T00:10:16;20.13;;;9.43;;
22417;SDS011;11376;50.932;4.442;2022-11-15T00:12:42;18.03;;;9.23;;
22417;SDS011;11376;50.932;4.442;2022-11-15T00:15:08;16.80;;;8.93;;
22417;SDS011;11376;50.932;4.442;2022-11-15T00:17:34;21.47;;;8.97;;
22417;SDS011;11376;50.932;4.442;2022-11-15T00:19:59;14.00;;;8.23;;
22417;SDS011;11376;50.932;4.442;2022-11-15T00:22:25;18.87;;;9.20;;
22417;SDS011;11376;50.932;4.442;2022-11-15T00:24:57;19.33;;;8.87;;
22417;SDS011;11376;50.932;4.442;2022-11-15T00:27:22;23.83;;;9.53;;
22417;SDS011;11376;50.932;4.442;2022-11-15T00:29:48;21.70;;;9.57;;
22417;SDS011;11376;50.932;4.442;2022-11-15T00:32:13;20.33;;;8.87;;
22417;SDS011;11376;50.932;4.442;2022-11-15T00:34:39;18.77;;;9.93;;
22417;SDS011;11376;50.932;4.442;2022-11-15T00:37:05;19.50;;;9.80;;
22417;SDS011;11376;50.932;4.442;2022-11-15T00:39:32;19.10;;;9.73;;
22417;SDS011;11376;50.932;4.442;2022-11-15T00:41:57;22.00;;;9.87;;
22417;SDS011;11376;50.932;4.442;2022-11-15T00:44:23;21.07;;;9.50;;
22417;SDS011;11376;50.932;4.442;2022-11-15T00:46:48;20.70;;;8.93;;
22417;SDS011;11376;50.932;4.442;2022-11-15T00:49:14;19.40;;;9.27;;
22417;SDS011;11376;50.932;4.442;2022-11-15T00:51:39;20.67;;;9.53;;
22417;SDS011;11376;50.932;4.442;2022-11-15T00:54:05;17.50;;;9.67;;
22417;SDS011;11376;50.932;4.442;2022-11-15T00:56:30;21.60;;;10.00;;
22417;SDS011;11376;50.932;4.442;2022-11-15T00:58:56;22.53;;;9.57;;
22417;SDS011;11376;50.932;4.442;2022-11-15T01:01:22;20.17;;;9.90;;
22417;SDS011;11376;50.932;4.442;2022-11-15T01:03:47;20.10;;;10.20;;
22417;SDS011;11376;50.932;4.442;2022-11-15T01:06:13;21.13;;;10.10;;
22417;SDS011;11376;50.932;4.442;2022-11-15T01:08:39;21.17;;;9.47;;
22417;SDS011;11376;50.932;4.442;2022-11-15T01:11:06;21.23;;;9.13;;
22417;SDS011;11376;50.932;4.442;2022-11-15T01:13:35;21.60;;;10.27;;
22417;SDS011;11376;50.932;4.442;2022-11-15T01:16:12;22.83;;;9.57;;
22417;SDS011;11376;50.932;4.442;2022-11-15T01:18:41;17.53;;;9.43;;
22417;SDS011;11376;50.932;4.442;2022-11-15T01:21:10;18.67;;;9.73;;
22417;SDS011;11376;50.932;4.442;2022-11-15T01:23:38;21.97;;;10.27;;
22417;SDS011;11376;50.932;4.442;2022-11-15T01:26:04;22.47;;;10.50;;
22417;SDS011;11376;50.932;4.442;2022-11-15T01:28:33;22.63;;;10.23;;
22417;SDS011;11376;50.932;4.442;2022-11-15T01:31:03;23.63;;;10.70;;
22417;SDS011;11376;50.932;4.442;2022-11-15T01:33:33;25.43;;;10.93;;
22417;SDS011;11376;50.932;4.442;2022-11-15T01:36:02;20.60;;;10.17;;
22417;SDS011;11376;50.932;4.442;2022-11-15T01:38:32;20.43;;;9.67;;
22417;SDS011;11376;50.932;4.442;2022-11-15T01:40:58;19.60;;;10.10;;
22417;SDS011;11376;50.932;4.442;2022-11-15T01:43:32;22.00;;;10.33;;
22417;SDS011;11376;50.932;4.442;2022-11-15T01:49:05;21.13;;;9.83;;
22417;SDS011;11376;50.932;4.442;2022-11-15T01:51:38;21.90;;;10.07;;
22417;SDS011;11376;50.932;4.442;2022-11-15T01:54:05;22.00;;;9.73;;
22417;SDS011;11376;50.932;4.442;2022-11-15T01:56:36;19.83;;;10.10;;
22417;SDS011;11376;50.932;4.442;2022-11-15T01:59:08;22.17;;;10.20;;
22417;SDS011;11376;50.932;4.442;2022-11-15T02:01:34;18.97;;;10.20;;
22417;SDS011;11376;50.932;4.442;2022-11-15T02:04:13;20.47;;;10.07;;
22417;SDS011;11376;50.932;4.442;2022-11-15T02:06:42;20.13;;;9.13;;
22417;SDS011;11376;50.932;4.442;2022-11-15T02:09:09;22.73;;;9.17;;
22417;SDS011;11376;50.932;4.442;2022-11-15T02:11:36;23.73;;;9.57;;
22417;SDS011;11376;50.932;4.442;2022-11-15T02:14:02;23.80;;;8.83;;
22417;SDS011;11376;50.932;4.442;2022-11-15T02:19:19;16.20;;;8.47;;
22417;SDS011;11376;50.932;4.442;2022-11-15T02:32:54;20.40;;;8.63;;
22417;SDS011;11376;50.932;4.442;2022-11-15T02:35:30;17.23;;;8.50;;
22417;SDS011;11376;50.932;4.442;2022-11-15T02:38:21;17.20;;;8.47;;
22417;SDS011;11376;50.932;4.442;2022-11-15T02:41:00;16.03;;;8.80;;
22417;SDS011;11376;50.932;4.442;2022-11-15T02:43:37;22.83;;;9.10;;
22417;SDS011;11376;50.932;4.442;2022-11-15T02:49:14;19.77;;;8.20;;
22417;SDS011;11376;50.932;4.442;2022-11-15T02:51:41;16.70;;;8.17;;
22417;SDS011;11376;50.932;4.442;2022-11-15T02:54:14;16.97;;;8.53;;
22417;SDS011;11376;50.932;4.442;2022-11-15T02:56:43;15.43;;;7.90;;
22417;SDS011;11376;50.932;4.442;2022-11-15T03:02:09;17.83;;;8.40;;
22417;SDS011;11376;50.932;4.442;2022-11-15T03:04:42;22.03;;;8.77;;
22417;SDS011;11376;50.932;4.442;2022-11-15T03:07:18;15.47;;;7.50;;
22417;SDS011;11376;50.932;4.442;2022-11-15T03:09:55;15.63;;;7.70;;
22417;SDS011;11376;50.932;4.442;2022-11-15T03:12:27;16.53;;;7.33;;
22417;SDS011;11376;50.932;4.442;2022-11-15T03:15:28;16.73;;;8.07;;
22417;SDS011;11376;50.932;4.442;2022-11-15T03:18:00;18.40;;;7.20;;
22417;SDS011;11376;50.932;4.442;2022-11-15T03:20:31;13.20;;;7.27;;
22417;SDS011;11376;50.932;4.442;2022-11-15T03:23:00;14.47;;;7.00;;
22417;SDS011;11376;50.932;4.442;2022-11-15T03:25:31;16.07;;;7.07;;
22417;SDS011;11376;50.932;4.442;2022-11-15T03:28:00;16.87;;;6.43;;
22417;SDS011;11376;50.932;4.442;2022-11-15T03:30:30;15.97;;;7.33;;
22417;SDS011;11376;50.932;4.442;2022-11-15T03:32:59;13.47;;;6.83;;
22417;SDS011;11376;50.932;4.442;2022-11-15T03:35:27;14.17;;;6.67;;
22417;SDS011;11376;50.932;4.442;2022-11-15T03:40:47;14.83;;;6.10;;
22417;SDS011;11376;50.932;4.442;2022-11-15T03:47:14;11.60;;;5.63;;
22417;SDS011;11376;50.932;4.442;2022-11-15T03:49:19;13.40;;;5.30;;
22417;SDS011;11376;50.932;4.442;2022-11-15T03:51:50;14.37;;;5.30;;
22417;SDS011;11376;50.932;4.442;2022-11-15T03:54:16;9.93;;;5.00;;
22417;SDS011;11376;50.932;4.442;2022-11-15T03:56:42;12.77;;;5.47;;
22417;SDS011;11376;50.932;4.442;2022-11-15T03:59:07;12.77;;;4.50;;
22417;SDS011;11376;50.932;4.442;2022-11-15T04:01:33;10.17;;;4.80;;
22417;SDS011;11376;50.932;4.442;2022-11-15T04:03:58;12.53;;;4.97;;
22417;SDS011;11376;50.932;4.442;2022-11-15T04:06:24;13.37;;;4.83;;
22417;SDS011;11376;50.932;4.442;2022-11-15T04:08:49;12.37;;;4.77;;
22417;SDS011;11376;50.932;4.442;2022-11-15T04:11:15;9.87;;;4.93;;
22417;SDS011;11376;50.932;4.442;2022-11-15T04:13:41;15.00;;;4.67;;
22417;SDS011;11376;50.932;4.442;2022-11-15T04:16:06;10.60;;;4.60;;
22417;SDS011;11376;50.932;4.442;2022-11-15T04:18:32;11.90;;;4.57;;
22417;SDS011;11376;50.932;4.442;2022-11-15T04:20:57;12.70;;;4.50;;
22417;SDS011;11376;50.932;4.442;2022-11-15T04:23:41;12.10;;;4.87;;
22417;SDS011;11376;50.932;4.442;2022-11-15T04:26:25;9.07;;;3.87;;
22417;SDS011;11376;50.932;4.442;2022-11-15T04:28:51;9.53;;;4.27;;
22417;SDS011;11376;50.932;4.442;2022-11-15T04:31:35;10.10;;;4.10;;
22417;SDS011;11376;50.932;4.442;2022-11-15T04:34:01;12.40;;;4.10;;
22417;SDS011;11376;50.932;4.442;2022-11-15T04:36:26;8.23;;;3.73;;
22417;SDS011;11376;50.932;4.442;2022-11-15T04:39:11;9.93;;;3.73;;
22417;SDS011;11376;50.932;4.442;2022-11-15T04:41:36;13.50;;;4.67;;
22417;SDS011;11376;50.932;4.442;2022-11-15T04:44:02;8.23;;;3.77;;
22417;SDS011;11376;50.932;4.442;2022-11-15T04:46:27;5.90;;;3.13;;
22417;SDS011;11376;50.932;4.442;2022-11-15T04:48:53;10.03;;;3.57;;
22417;SDS011;11376;50.932;4.442;2022-11-15T04:51:19;8.63;;;3.27;;
22417;SDS011;11376;50.932;4.442;2022-11-15T04:53:45;9.43;;;3.20;;
22417;SDS011;11376;50.932;4.442;2022-11-15T04:56:11;8.63;;;2.97;;
22417;SDS011;11376;50.932;4.442;2022-11-15T04:58:37;12.50;;;3.33;;
22417;SDS011;11376;50.932;4.442;2022-11-15T05:01:06;10.83;;;3.30;;
22417;SDS011;11376;50.932;4.442;2022-11-15T05:03:32;6.83;;;3.03;;
22417;SDS011;11376;50.932;4.442;2022-11-15T05:06:17;12.37;;;2.90;;
22417;SDS011;11376;50.932;4.442;2022-11-15T05:08:42;7.00;;;2.70;;
22417;SDS011;11376;50.932;4.442;2022-11-15T05:11:08;13.10;;;2.93;;
22417;SDS011;11376;50.932;4.442;2022-11-15T05:13:33;6.37;;;2.97;;
22417;SDS011;11376;50.932;4.442;2022-11-15T05:15:59;10.03;;;2.73;;
22417;SDS011;11376;50.932;4.442;2022-11-15T05:18:25;10.57;;;2.83;;
22417;SDS011;11376;50.932;4.442;2022-11-15T05:20:50;7.77;;;2.53;;
22417;SDS011;11376;50.932;4.442;2022-11-15T05:23:16;7.83;;;2.50;;
22417;SDS011;11376;50.932;4.442;2022-11-15T05:25:41;5.90;;;2.50;;
22417;SDS011;11376;50.932;4.442;2022-11-15T05:28:07;6.90;;;2.53;;
22417;SDS011;11376;50.932;4.442;2022-11-15T05:30:32;9.17;;;2.90;;
22417;SDS011;11376;50.932;4.442;2022-11-15T05:32:58;9.27;;;2.50;;
22417;SDS011;11376;50.932;4.442;2022-11-15T05:35:27;9.37;;;2.60;;
22417;SDS011;11376;50.932;4.442;2022-11-15T05:37:57;5.20;;;2.20;;
22417;SDS011;11376;50.932;4.442;2022-11-15T05:40:23;5.87;;;2.30;;
22417;SDS011;11376;50.932;4.442;2022-11-15T05:42:49;7.80;;;2.30;;
22417;SDS011;11376;50.932;4.442;2022-11-15T05:45:15;8.00;;;2.33;;
22417;SDS011;11376;50.932;4.442;2022-11-15T05:47:41;5.53;;;2.13;;
22417;SDS011;11376;50.932;4.442;2022-11-15T05:50:07;5.90;;;2.00;;
22417;SDS011;11376;50.932;4.442;2022-11-15T05:52:35;6.43;;;2.33;;
22417;SDS011;11376;50.932;4.442;2022-11-15T05:55:02;6.23;;;2.20;;
22417;SDS011;11376;50.932;4.442;2022-11-15T05:57:29;5.90;;;2.03;;
22417;SDS011;11376;50.932;4.442;2022-11-15T05:59:55;5.47;;;1.87;;
22417;SDS011;11376;50.932;4.442;2022-11-15T06:02:20;6.03;;;2.07;;
22417;SDS011;11376;50.932;4.442;2022-11-15T06:04:46;7.27;;;2.07;;
22417;SDS011;11376;50.932;4.442;2022-11-15T06:07:11;8.97;;;2.13;;
22417;SDS011;11376;50.932;4.442;2022-11-15T06:09:38;5.17;;;1.90;;
22417;SDS011;11376;50.932;4.442;2022-11-15T06:12:04;6.60;;;2.13;;
22417;SDS011;11376;50.932;4.442;2022-11-15T06:14:29;7.60;;;2.10;;
22417;SDS011;11376;50.932;4.442;2022-11-15T06:16:55;7.37;;;1.90;;
22417;SDS011;11376;50.932;4.442;2022-11-15T06:19:20;7.50;;;2.60;;
22417;SDS011;11376;50.932;4.442;2022-11-15T06:21:46;5.23;;;2.00;;
22417;SDS011;11376;50.932;4.442;2022-11-15T06:24:12;6.03;;;2.10;;
22417;SDS011;11376;50.932;4.442;2022-11-15T06:26:37;5.13;;;1.87;;
22417;SDS011;11376;50.932;4.442;2022-11-15T06:29:03;6.90;;;2.40;;
22417;SDS011;11376;50.932;4.442;2022-11-15T06:31:29;6.60;;;2.20;;
22417;SDS011;11376;50.932;4.442;2022-11-15T06:33:55;8.53;;;2.03;;
22417;SDS011;11376;50.932;4.442;2022-11-15T06:36:21;6.80;;;2.10;;
22417;SDS011;11376;50.932;4.442;2022-11-15T06:38:47;6.77;;;2.10;;
22417;SDS011;11376;50.932;4.442;2022-11-15T06:41:13;7.57;;;2.00;;
22417;SDS011;11376;50.932;4.442;2022-11-15T06:43:39;7.43;;;2.13;;
22417;SDS011;11376;50.932;4.442;2022-11-15T06:46:06;9.30;;;2.30;;
22417;SDS011;11376;50.932;4.442;2022-11-15T06:48:32;6.33;;;2.17;;
22417;SDS011;11376;50.932;4.442;2022-11-15T06:50:59;3.90;;;2.00;;
22417;SDS011;11376;50.932;4.442;2022-11-15T06:53:26;7.47;;;2.20;;
22417;SDS011;11376;50.932;4.442;2022-11-15T06:55:53;7.63;;;2.13;;
22417;SDS011;11376;50.932;4.442;2022-11-15T06:58:20;6.17;;;1.97;;
22417;SDS011;11376;50.932;4.442;2022-11-15T07:00:46;7.13;;;2.30;;
22417;SDS011;11376;50.932;4.442;2022-11-15T07:03:11;4.87;;;2.40;;
22417;SDS011;11376;50.932;4.442;2022-11-15T07:05:37;6.13;;;2.07;;
22417;SDS011;11376;50.932;4.442;2022-11-15T07:08:03;9.03;;;2.60;;
22417;SDS011;11376;50.932;4.442;2022-11-15T07:10:29;9.00;;;2.40;;
22417;SDS011;11376;50.932;4.442;2022-11-15T07:12:55;5.97;;;2.37;;
22417;SDS011;11376;50.932;4.442;2022-11-15T07:15:22;5.37;;;2.20;;
22417;SDS011;11376;50.932;4.442;2022-11-15T07:17:51;8.37;;;2.20;;
22417;SDS011;11376;50.932;4.442;2022-11-15T07:20:17;7.13;;;2.50;;
22417;SDS011;11376;50.932;4.442;2022-11-15T07:22:43;9.37;;;2.30;;
22417;SDS011;11376;50.932;4.442;2022-11-15T07:25:10;8.93;;;2.10;;
22417;SDS011;11376;50.932;4.442;2022-11-15T07:27:36;7.03;;;2.20;;
22417;SDS011;11376;50.932;4.442;2022-11-15T07:30:02;11.53;;;2.33;;
22417;SDS011;11376;50.932;4.442;2022-11-15T07:32:28;9.97;;;2.23;;
22417;SDS011;11376;50.932;4.442;2022-11-15T07:34:54;5.47;;;1.90;;
22417;SDS011;11376;50.932;4.442;2022-11-15T07:37:19;7.43;;;2.20;;
22417;SDS011;11376;50.932;4.442;2022-11-15T07:39:45;6.50;;;2.03;;
22417;SDS011;11376;50.932;4.442;2022-11-15T07:42:11;4.67;;;1.97;;
22417;SDS011;11376;50.932;4.442;2022-11-15T07:44:55;6.17;;;2.17;;
22417;SDS011;11376;50.932;4.442;2022-11-15T07:47:21;10.20;;;2.33;;
22417;SDS011;11376;50.932;4.442;2022-11-15T07:49:46;4.87;;;2.17;;
22417;SDS011;11376;50.932;4.442;2022-11-15T07:52:12;6.90;;;1.90;;
22417;SDS011;11376;50.932;4.442;2022-11-15T07:54:38;5.67;;;2.00;;
22417;SDS011;11376;50.932;4.442;2022-11-15T07:57:04;5.80;;;1.80;;
22417;SDS011;11376;50.932;4.442;2022-11-15T07:59:32;9.43;;;2.10;;
22417;SDS011;11376;50.932;4.442;2022-11-15T08:01:57;5.73;;;2.30;;
22417;SDS011;11376;50.932;4.442;2022-11-15T08:04:23;5.93;;;2.23;;
22417;SDS011;11376;50.932;4.442;2022-11-15T08:06:48;5.93;;;2.17;;
22417;SDS011;11376;50.932;4.442;2022-11-15T08:09:14;5.47;;;2.03;;
22417;SDS011;11376;50.932;4.442;2022-11-15T08:11:39;8.63;;;2.70;;
22417;SDS011;11376;50.932;4.442;2022-11-15T08:14:05;9.23;;;2.20;;
22417;SDS011;11376;50.932;4.442;2022-11-15T08:16:30;6.40;;;2.33;;
22417;SDS011;11376;50.932;4.442;2022-11-15T08:18:56;7.83;;;2.13;;
22417;SDS011;11376;50.932;4.442;2022-11-15T08:21:21;6.73;;;2.17;;
22417;SDS011;11376;50.932;4.442;2022-11-15T08:23:48;5.37;;;1.80;;
22417;SDS011;11376;50.932;4.442;2022-11-15T08:26:13;9.53;;;1.70;;
22417;SDS011;11376;50.932;4.442;2022-11-15T08:28:39;6.33;;;1.43;;
22417;SDS011;11376;50.932;4.442;2022-11-15T08:31:05;8.40;;;2.17;;
22417;SDS011;11376;50.932;4.442;2022-11-15T08:33:31;4.50;;;1.50;;
22417;SDS011;11376;50.932;4.442;2022-11-15T08:35:58;5.13;;;1.37;;
22417;SDS011;11376;50.932;4.442;2022-11-15T08:38:25;7.07;;;1.50;;
22417;SDS011;11376;50.932;4.442;2022-11-15T08:40:51;4.67;;;1.50;;
22417;SDS011;11376;50.932;4.442;2022-11-15T08:43:24;4.30;;;1.17;;
22417;SDS011;11376;50.932;4.442;2022-11-15T08:45:49;6.87;;;1.53;;
22417;SDS011;11376;50.932;4.442;2022-11-15T08:48:15;6.00;;;1.33;;
22417;SDS011;11376;50.932;4.442;2022-11-15T08:50:41;8.17;;;1.50;;
22417;SDS011;11376;50.932;4.442;2022-11-15T08:53:08;6.33;;;1.10;;
22417;SDS011;11376;50.932;4.442;2022-11-15T08:55:38;3.67;;;1.10;;
22417;SDS011;11376;50.932;4.442;2022-11-15T08:58:04;3.87;;;1.40;;
22417;SDS011;11376;50.932;4.442;2022-11-15T09:00:30;6.03;;;1.13;;
22417;SDS011;11376;50.932;4.442;2022-11-15T09:02:55;5.77;;;1.10;;
22417;SDS011;11376;50.932;4.442;2022-11-15T09:05:21;5.83;;;1.40;;
22417;SDS011;11376;50.932;4.442;2022-11-15T09:07:46;7.97;;;1.40;;
22417;SDS011;11376;50.932;4.442;2022-11-15T09:10:12;9.13;;;1.20;;
22417;SDS011;11376;50.932;4.442;2022-11-15T09:12:37;4.03;;;0.90;;
22417;SDS011;11376;50.932;4.442;2022-11-15T09:15:04;1.93;;;0.93;;
22417;SDS011;11376;50.932;4.442;2022-11-15T09:17:30;3.83;;;1.07;;
22417;SDS011;11376;50.932;4.442;2022-11-15T09:19:56;2.47;;;0.80;;
22417;SDS011;11376;50.932;4.442;2022-11-15T09:22:21;1.97;;;0.80;;
22417;SDS011;11376;50.932;4.442;2022-11-15T09:24:47;4.50;;;1.00;;
22417;SDS011;11376;50.932;4.442;2022-11-15T09:27:13;7.53;;;1.07;;
22417;SDS011;11376;50.932;4.442;2022-11-15T09:29:38;4.63;;;0.93;;
22417;SDS011;11376;50.932;4.442;2022-11-15T09:32:04;4.93;;;0.70;;
22417;SDS011;11376;50.932;4.442;2022-11-15T09:34:30;4.30;;;0.80;;
22417;SDS011;11376;50.932;4.442;2022-11-15T09:36:56;4.50;;;0.90;;
22417;SDS011;11376;50.932;4.442;2022-11-15T09:39:22;3.42;;;0.80;;
22417;SDS011;11376;50.932;4.442;2022-11-15T09:50:28;4.68;;;0.82;;
22417;SDS011;11376;50.932;4.442;2022-11-15T10:04:36;4.47;;;1.17;;
22417;SDS011;11376;50.932;4.442;2022-11-15T10:09:54;6.78;;;0.90;;
22417;SDS011;11376;50.932;4.442;2022-11-15T10:12:23;5.93;;;0.90;;
22417;SDS011;11376;50.932;4.442;2022-11-15T10:14:50;7.32;;;0.88;;
22417;SDS011;11376;50.932;4.442;2022-11-15T10:20:23;8.48;;;0.90;;
22417;SDS011;11376;50.932;4.442;2022-11-15T10:22:52;6.25;;;0.93;;
22417;SDS011;11376;50.932;4.442;2022-11-15T10:25:24;4.38;;;0.90;;
22417;SDS011;11376;50.932;4.442;2022-11-15T10:28:06;6.35;;;1.00;;
22417;SDS011;11376;50.932;4.442;2022-11-15T10:30:40;5.53;;;0.98;;
22417;SDS011;11376;50.932;4.442;2022-11-15T10:33:22;3.55;;;0.57;;
22417;SDS011;11376;50.932;4.442;2022-11-15T10:41:13;6.50;;;0.80;;
22417;SDS011;11376;50.932;4.442;2022-11-15T10:43:39;3.00;;;0.60;;
22417;SDS011;11376;50.932;4.442;2022-11-15T10:46:19;4.35;;;0.90;;
22417;SDS011;11376;50.932;4.442;2022-11-15T10:48:46;7.00;;;0.80;;
22417;SDS011;11376;50.932;4.442;2022-11-15T10:51:25;8.27;;;0.77;;
22417;SDS011;11376;50.932;4.442;2022-11-15T10:53:54;2.90;;;0.60;;
22417;SDS011;11376;50.932;4.442;2022-11-15T10:56:22;5.32;;;0.98;;
22417;SDS011;11376;50.932;4.442;2022-11-15T10:58:51;3.78;;;0.88;;
22417;SDS011;11376;50.932;4.442;2022-11-15T11:01:25;4.10;;;0.77;;
22417;SDS011;11376;50.932;4.442;2022-11-15T11:06:26;6.95;;;0.82;;
22417;SDS011;11376;50.932;4.442;2022-11-15T11:08:54;9.13;;;0.80;;
22417;SDS011;11376;50.932;4.442;2022-11-15T11:11:23;7.15;;;1.20;;
22417;SDS011;11376;50.932;4.442;2022-11-15T11:13:49;4.25;;;0.70;;
22417;SDS011;11376;50.932;4.442;2022-11-15T11:22:05;7.03;;;0.73;;
22417;SDS011;11376;50.932;4.442;2022-11-15T11:30:14;6.22;;;0.70;;
22417;SDS011;11376;50.932;4.442;2022-11-15T11:35:20;5.80;;;0.80;;
22417;SDS011;11376;50.932;4.442;2022-11-15T11:48:41;4.18;;;0.70;;
22417;SDS011;11376;50.932;4.442;2022-11-15T11:51:55;4.38;;;0.70;;
22417;SDS011;11376;50.932;4.442;2022-11-15T11:54:05;2.90;;;0.50;;
22417;SDS011;11376;50.932;4.442;2022-11-15T11:56:39;8.18;;;0.90;;
22417;SDS011;11376;50.932;4.442;2022-11-15T11:59:28;3.78;;;0.80;;
22417;SDS011;11376;50.932;4.442;2022-11-15T12:02:01;6.72;;;0.77;;
22417;SDS011;11376;50.932;4.442;2022-11-15T12:04:48;4.13;;;0.70;;
22417;SDS011;11376;50.932;4.442;2022-11-15T12:07:20;9.20;;;0.82;;
22417;SDS011;11376;50.932;4.442;2022-11-15T12:09:59;10.50;;;0.95;;
22417;SDS011;11376;50.932;4.442;2022-11-15T12:12:52;4.43;;;1.00;;
22417;SDS011;11376;50.932;4.442;2022-11-15T12:15:20;7.85;;;1.63;;
22417;SDS011;11376;50.932;4.442;2022-11-15T12:17:50;5.88;;;1.70;;
22417;SDS011;11376;50.932;4.442;2022-11-15T12:20:27;6.53;;;1.50;;
22417;SDS011;11376;50.932;4.442;2022-11-15T12:22:57;5.72;;;0.80;;
22417;SDS011;11376;50.932;4.442;2022-11-15T12:26:01;6.45;;;1.02;;
22417;SDS011;11376;50.932;4.442;2022-11-15T12:28:47;5.15;;;1.15;;
22417;SDS011;11376;50.932;4.442;2022-11-15T12:31:36;6.32;;;1.05;;
22417;SDS011;11376;50.932;4.442;2022-11-15T12:34:13;4.95;;;1.05;;
22417;SDS011;11376;50.932;4.442;2022-11-15T12:37:02;10.93;;;0.88;;
22417;SDS011;11376;50.932;4.442;2022-11-15T12:42:39;5.18;;;0.70;;
22417;SDS011;11376;50.932;4.442;2022-11-15T13:12:00;7.07;;;0.82;;
22417;SDS011;11376;50.932;4.442;2022-11-15T13:19:47;4.38;;;0.70;;
22417;SDS011;11376;50.932;4.442;2022-11-15T13:22:18;2.58;;;0.77;;
22417;SDS011;11376;50.932;4.442;2022-11-15T13:25:02;7.80;;;0.88;;
22417;SDS011;11376;50.932;4.442;2022-11-15T13:27:29;3.22;;;0.80;;
22417;SDS011;11376;50.932;4.442;2022-11-15T13:29:54;2.83;;;0.90;;
22417;SDS011;11376;50.932;4.442;2022-11-15T13:32:20;3.92;;;0.80;;
22417;SDS011;11376;50.932;4.442;2022-11-15T13:34:47;4.18;;;0.60;;
22417;SDS011;11376;50.932;4.442;2022-11-15T13:39:45;4.28;;;0.60;;
22417;SDS011;11376;50.932;4.442;2022-11-15T13:42:15;3.92;;;0.80;;
22417;SDS011;11376;50.932;4.442;2022-11-15T13:44:54;3.28;;;0.60;;
22417;SDS011;11376;50.932;4.442;2022-11-15T13:47:21;3.15;;;0.80;;
22417;SDS011;11376;50.932;4.442;2022-11-15T13:49:50;4.60;;;0.77;;
22417;SDS011;11376;50.932;4.442;2022-11-15T13:52:15;4.85;;;0.70;;
22417;SDS011;11376;50.932;4.442;2022-11-15T13:54:51;3.95;;;0.70;;
22417;SDS011;11376;50.932;4.442;2022-11-15T13:57:30;2.92;;;0.68;;
22417;SDS011;11376;50.932;4.442;2022-11-15T14:06:10;4.78;;;0.98;;
22417;SDS011;11376;50.932;4.442;2022-11-15T14:11:24;1.45;;;0.60;;
22417;SDS011;11376;50.932;4.442;2022-11-15T14:16:34;2.97;;;0.70;;
22417;SDS011;11376;50.932;4.442;2022-11-15T14:19:02;3.85;;;0.93;;
22417;SDS011;11376;50.932;4.442;2022-11-15T14:21:29;4.25;;;0.70;;
22417;SDS011;11376;50.932;4.442;2022-11-15T14:24:14;7.07;;;0.70;;
22417;SDS011;11376;50.932;4.442;2022-11-15T14:26:44;3.25;;;0.70;;
22417;SDS011;11376;50.932;4.442;2022-11-15T14:29:23;4.80;;;0.80;;
22417;SDS011;11376;50.932;4.442;2022-11-15T14:31:53;1.67;;;0.60;;
22417;SDS011;11376;50.932;4.442;2022-11-15T14:34:37;3.08;;;0.93;;
22417;SDS011;11376;50.932;4.442;2022-11-15T14:37:02;3.05;;;0.73;;
22417;SDS011;11376;50.932;4.442;2022-11-15T14:39:28;3.78;;;0.70;;
22417;SDS011;11376;50.932;4.442;2022-11-15T14:41:53;3.60;;;0.80;;
22417;SDS011;11376;50.932;4.442;2022-11-15T14:44:19;4.17;;;0.80;;
22417;SDS011;11376;50.932;4.442;2022-11-15T14:46:46;7.07;;;0.90;;
22417;SDS011;11376;50.932;4.442;2022-11-15T14:49:13;2.53;;;0.65;;
22417;SDS011;11376;50.932;4.442;2022-11-15T14:51:40;8.82;;;0.90;;
22417;SDS011;11376;50.932;4.442;2022-11-15T14:54:08;2.67;;;0.73;;
22417;SDS011;11376;50.932;4.442;2022-11-15T14:56:35;1.43;;;0.60;;
22417;SDS011;11376;50.932;4.442;2022-11-15T14:59:00;1.90;;;0.75;;
22417;SDS011;11376;50.932;4.442;2022-11-15T15:01:26;3.03;;;1.00;;
22417;SDS011;11376;50.932;4.442;2022-11-15T15:03:52;6.83;;;1.00;;
22417;SDS011;11376;50.932;4.442;2022-11-15T15:06:21;2.78;;;0.95;;
22417;SDS011;11376;50.932;4.442;2022-11-15T15:08:47;2.17;;;0.90;;
22417;SDS011;11376;50.932;4.442;2022-11-15T15:11:22;3.07;;;0.90;;
22417;SDS011;11376;50.932;4.442;2022-11-15T15:13:50;3.90;;;0.90;;
22417;SDS011;11376;50.932;4.442;2022-11-15T15:16:15;4.20;;;0.97;;
22417;SDS011;11376;50.932;4.442;2022-11-15T15:18:41;3.67;;;1.00;;
22417;SDS011;11376;50.932;4.442;2022-11-15T15:21:15;2.47;;;0.97;;
22417;SDS011;11376;50.932;4.442;2022-11-15T15:23:46;6.17;;;0.90;;
22417;SDS011;11376;50.932;4.442;2022-11-15T15:26:12;2.00;;;0.90;;
22417;SDS011;11376;50.932;4.442;2022-11-15T15:28:37;4.23;;;0.90;;
22417;SDS011;11376;50.932;4.442;2022-11-15T15:31:04;3.50;;;1.00;;
22417;SDS011;11376;50.932;4.442;2022-11-15T15:33:30;3.53;;;0.83;;
22417;SDS011;11376;50.932;4.442;2022-11-15T15:35:56;3.20;;;1.00;;
22417;SDS011;11376;50.932;4.442;2022-11-15T15:38:22;3.23;;;1.10;;
22417;SDS011;11376;50.932;4.442;2022-11-15T15:40:47;3.67;;;0.90;;
22417;SDS011;11376;50.932;4.442;2022-11-15T15:43:13;1.97;;;0.90;;
22417;SDS011;11376;50.932;4.442;2022-11-15T15:45:39;4.03;;;1.07;;
22417;SDS011;11376;50.932;4.442;2022-11-15T15:48:09;3.23;;;0.90;;
22417;SDS011;11376;50.932;4.442;2022-11-15T15:50:38;4.97;;;1.10;;
22417;SDS011;11376;50.932;4.442;2022-11-15T15:53:04;2.77;;;1.20;;
22417;SDS011;11376;50.932;4.442;2022-11-15T15:55:30;3.53;;;1.43;;
22417;SDS011;11376;50.932;4.442;2022-11-15T15:57:56;5.10;;;1.07;;
22417;SDS011;11376;50.932;4.442;2022-11-15T16:00:22;3.93;;;1.20;;
22417;SDS011;11376;50.932;4.442;2022-11-15T16:02:49;4.07;;;1.37;;
22417;SDS011;11376;50.932;4.442;2022-11-15T16:05:16;3.90;;;1.20;;
22417;SDS011;11376;50.932;4.442;2022-11-15T16:07:42;5.07;;;1.50;;
22417;SDS011;11376;50.932;4.442;2022-11-15T16:10:19;5.27;;;1.80;;
22417;SDS011;11376;50.932;4.442;2022-11-15T16:12:52;5.47;;;1.50;;
22417;SDS011;11376;50.932;4.442;2022-11-15T16:15:19;4.10;;;1.40;;
22417;SDS011;11376;50.932;4.442;2022-11-15T16:17:50;7.07;;;1.60;;
22417;SDS011;11376;50.932;4.442;2022-11-15T16:20:31;3.53;;;1.43;;
22417;SDS011;11376;50.932;4.442;2022-11-15T16:23:03;3.80;;;1.50;;
22417;SDS011;11376;50.932;4.442;2022-11-15T16:25:31;2.57;;;1.27;;
22417;SDS011;11376;50.932;4.442;2022-11-15T16:28:01;3.43;;;1.50;;
22417;SDS011;11376;50.932;4.442;2022-11-15T16:30:27;4.00;;;1.50;;
22417;SDS011;11376;50.932;4.442;2022-11-15T16:32:53;7.37;;;1.80;;
22417;SDS011;11376;50.932;4.442;2022-11-15T16:35:18;5.37;;;1.57;;
22417;SDS011;11376;50.932;4.442;2022-11-15T16:37:44;5.57;;;1.63;;
22417;SDS011;11376;50.932;4.442;2022-11-15T16:40:29;5.13;;;1.60;;
22417;SDS011;11376;50.932;4.442;2022-11-15T16:42:57;7.33;;;1.70;;
22417;SDS011;11376;50.932;4.442;2022-11-15T16:45:24;3.30;;;1.37;;
22417;SDS011;11376;50.932;4.442;2022-11-15T16:47:50;4.63;;;1.60;;
22417;SDS011;11376;50.932;4.442;2022-11-15T16:50:22;4.27;;;1.70;;
22417;SDS011;11376;50.932;4.442;2022-11-15T16:52:52;6.83;;;1.90;;
22417;SDS011;11376;50.932;4.442;2022-11-15T16:55:20;4.73;;;1.77;;
22417;SDS011;11376;50.932;4.442;2022-11-15T16:57:47;4.77;;;1.57;;
22417;SDS011;11376;50.932;4.442;2022-11-15T17:00:13;3.00;;;1.50;;
22417;SDS011;11376;50.932;4.442;2022-11-15T17:02:41;4.90;;;1.80;;
22417;SDS011;11376;50.932;4.442;2022-11-15T17:05:08;6.10;;;1.90;;
22417;SDS011;11376;50.932;4.442;2022-11-15T17:07:34;4.40;;;1.70;;
22417;SDS011;11376;50.932;4.442;2022-11-15T17:09:59;5.23;;;1.93;;